sensor_id;sensor_type;location;lat;lon;timestamp;pressure;altitude;pressure_sealevel;temperature;humidity
59367;BME280;45163;47.690;11.770;2023-05-29T00:01:14;93278.53;;;11.37;100.00
59367;BME280;45163;47.690;11.770;2023-05-29T00:03:44;93277.53;;;11.31;100.00
59367;BME280;45163;47.690;11.770;2023-05-29T00:06:10;93286.84;;;11.34;100.00
59367;BME280;45163;47.690;11.770;2023-05-29T00:08:36;93284.53;;;11.32;100.00
59367;BME280;45163;47.690;11.770;2023-05-29T00:11:02;93282.03;;;11.38;100.00
59367;BME280;45163;47.690;11.770;2023-05-29T00:13:28;93277.22;;;11.29;100.00
59367;BME280;45163;47.690;11.770;2023-05-29T00:15:54;93274.66;;;11.47;100.00
59367;BME280;45163;47.690;11.770;2023-05-29T00:18:21;93267.78;;;11.43;100.00
59367;BME280;45163;47.690;11.770;2023-05-29T00:20:47;93272.13;;;11.53;100.00
59367;BME280;45163;47.690;11.770;2023-05-29T00:23:13;93274.88;;;11.53;100.00
59367;BME280;45163;47.690;11.770;2023-05-29T00:25:39;93275.34;;;11.39;100.00
59367;BME280;45163;47.690;11.770;2023-05-29T00:28:09;93273.19;;;11.21;100.00
59367;BME280;45163;47.690;11.770;2023-05-29T00:30:35;93270.88;;;11.19;100.00
59367;BME280;45163;47.690;11.770;2023-05-29T00:33:01;93275.59;;;11.19;100.00
59367;BME280;45163;47.690;11.770;2023-05-29T00:35:27;93259.72;;;11.27;100.00
59367;BME280;45163;47.690;11.770;2023-05-29T00:37:53;93268.28;;;11.03;100.00
59367;BME280;45163;47.690;11.770;2023-05-29T00:40:19;93266.19;;;11.07;100.00
59367;BME280;45163;47.690;11.770;2023-05-29T00:42:45;93270.03;;;10.84;100.00
59367;BME280;45163;47.690;11.770;2023-05-29T00:45:11;93262.94;;;10.87;100.00
59367;BME280;45163;47.690;11.770;2023-05-29T00:47:40;93271.66;;;10.94;100.00
59367;BME280;45163;47.690;11.770;2023-05-29T00:50:08;93265.78;;;10.83;100.00
59367;BME280;45163;47.690;11.770;2023-05-29T00:52:37;93268.72;;;10.89;100.00
59367;BME280;45163;47.690;11.770;2023-05-29T00:55:04;93267.09;;;10.79;100.00
59367;BME280;45163;47.690;11.770;2023-05-29T00:57:34;93268.19;;;10.81;100.00
59367;BME280;45163;47.690;11.770;2023-05-29T01:00:03;93268.81;;;10.72;100.00
59367;BME280;45163;47.690;11.770;2023-05-29T01:02:31;93268.72;;;10.51;100.00
59367;BME280;45163;47.690;11.770;2023-05-29T01:04:57;93271.00;;;10.52;100.00
59367;BME280;45163;47.690;11.770;2023-05-29T01:07:24;93267.84;;;10.54;100.00
59367;BME280;45163;47.690;11.770;2023-05-29T01:09:50;93268.72;;;10.51;100.00
59367;BME280;45163;47.690;11.770;2023-05-29T01:28:36;93271.41;;;10.38;100.00
59367;BME280;45163;47.690;11.770;2023-05-29T01:31:03;93270.31;;;10.35;100.00
59367;BME280;45163;47.690;11.770;2023-05-29T01:33:30;93270.00;;;10.33;100.00
59367;BME280;45163;47.690;11.770;2023-05-29T01:35:56;93280.66;;;10.28;100.00
59367;BME280;45163;47.690;11.770;2023-05-29T01:38:21;93273.81;;;10.48;100.00
59367;BME280;45163;47.690;11.770;2023-05-29T01:40:47;93277.19;;;10.40;100.00
59367;BME280;45163;47.690;11.770;2023-05-29T01:43:14;93268.88;;;10.31;100.00
59367;BME280;45163;47.690;11.770;2023-05-29T01:45:40;93281.41;;;10.28;100.00
59367;BME280;45163;47.690;11.770;2023-05-29T01:48:07;93276.47;;;10.23;100.00
59367;BME280;45163;47.690;11.770;2023-05-29T01:50:33;93276.84;;;10.25;100.00
59367;BME280;45163;47.690;11.770;2023-05-29T01:53:00;93281.09;;;10.26;100.00
59367;BME280;45163;47.690;11.770;2023-05-29T01:55:26;93274.44;;;10.27;100.00
59367;BME280;45163;47.690;11.770;2023-05-29T01:57:52;93279.41;;;10.16;100.00
59367;BME280;45163;47.690;11.770;2023-05-29T02:00:20;93277.53;;;10.13;100.00
59367;BME280;45163;47.690;11.770;2023-05-29T02:02:46;93273.91;;;10.03;100.00
59367;BME280;45163;47.690;11.770;2023-05-29T02:05:12;93272.09;;;10.13;100.00
59367;BME280;45163;47.690;11.770;2023-05-29T02:07:38;93268.78;;;10.05;100.00
59367;BME280;45163;47.690;11.770;2023-05-29T02:10:05;93273.97;;;10.16;100.00
59367;BME280;45163;47.690;11.770;2023-05-29T02:12:31;93266.72;;;10.09;100.00
59367;BME280;45163;47.690;11.770;2023-05-29T02:14:57;93266.59;;;10.00;100.00
59367;BME280;45163;47.690;11.770;2023-05-29T02:17:23;93269.94;;;9.91;100.00
59367;BME280;45163;47.690;11.770;2023-05-29T02:19:50;93256.63;;;9.93;100.00
59367;BME280;45163;47.690;11.770;2023-05-29T02:22:17;93262.94;;;9.61;100.00
59367;BME280;45163;47.690;11.770;2023-05-29T02:24:43;93261.81;;;9.75;100.00
59367;BME280;45163;47.690;11.770;2023-05-29T02:27:09;93261.38;;;9.77;100.00
59367;BME280;45163;47.690;11.770;2023-05-29T02:29:35;93258.66;;;9.77;100.00
59367;BME280;45163;47.690;11.770;2023-05-29T02:32:01;93260.28;;;9.74;100.00
59367;BME280;45163;47.690;11.770;2023-05-29T02:34:27;93265.06;;;9.70;100.00
59367;BME280;45163;47.690;11.770;2023-05-29T02:36:53;93266.78;;;9.64;100.00
59367;BME280;45163;47.690;11.770;2023-05-29T02:39:20;93265.16;;;9.66;100.00
59367;BME280;45163;47.690;11.770;2023-05-29T02:41:46;93257.84;;;9.63;100.00
59367;BME280;45163;47.690;11.770;2023-05-29T02:44:12;93252.16;;;9.58;100.00
59367;BME280;45163;47.690;11.770;2023-05-29T02:46:41;93256.44;;;9.42;100.00
59367;BME280;45163;47.690;11.770;2023-05-29T02:49:07;93256.59;;;9.35;100.00
59367;BME280;45163;47.690;11.770;2023-05-29T02:51:33;93260.09;;;9.36;100.00
59367;BME280;45163;47.690;11.770;2023-05-29T02:53:59;93261.91;;;9.26;100.00
59367;BME280;45163;47.690;11.770;2023-05-29T02:56:25;93260.69;;;9.27;100.00
59367;BME280;45163;47.690;11.770;2023-05-29T02:58:51;93261.56;;;9.24;100.00
59367;BME280;45163;47.690;11.770;2023-05-29T03:01:17;93260.69;;;9.27;100.00
59367;BME280;45163;47.690;11.770;2023-05-29T03:03:43;93260.19;;;9.32;100.00
59367;BME280;45163;47.690;11.770;2023-05-29T03:06:09;93272.25;;;9.31;100.00
59367;BME280;45163;47.690;11.770;2023-05-29T03:08:36;93261.97;;;9.39;100.00
59367;BME280;45163;47.690;11.770;2023-05-29T03:11:13;93265.03;;;9.41;100.00
59367;BME280;45163;47.690;11.770;2023-05-29T03:13:40;93257.94;;;9.43;100.00
59367;BME280;45163;47.690;11.770;2023-05-29T03:16:06;93256.00;;;9.28;100.00
59367;BME280;45163;47.690;11.770;2023-05-29T03:18:34;93261.56;;;9.24;100.00
59367;BME280;45163;47.690;11.770;2023-05-29T03:21:00;93258.66;;;9.31;100.00
59367;BME280;45163;47.690;11.770;2023-05-29T03:23:27;93265.22;;;9.34;100.00
59367;BME280;45163;47.690;11.770;2023-05-29T03:25:53;93261.28;;;9.35;100.00
59367;BME280;45163;47.690;11.770;2023-05-29T03:28:19;93265.03;;;9.41;100.00
59367;BME280;45163;47.690;11.770;2023-05-29T03:30:45;93265.53;;;9.36;100.00
59367;BME280;45163;47.690;11.770;2023-05-29T03:33:11;93259.25;;;9.22;100.00
59367;BME280;45163;47.690;11.770;2023-05-29T03:35:37;93273.13;;;9.28;100.00
59367;BME280;45163;47.690;11.770;2023-05-29T03:38:03;93270.75;;;9.30;100.00
59367;BME280;45163;47.690;11.770;2023-05-29T03:40:29;93265.97;;;9.34;100.00
59367;BME280;45163;47.690;11.770;2023-05-29T03:42:55;93261.91;;;9.26;100.00
59367;BME280;45163;47.690;11.770;2023-05-29T03:45:21;93269.63;;;9.28;100.00
59367;BME280;45163;47.690;11.770;2023-05-29T03:47:47;93264.53;;;9.30;100.00
59367;BME280;45163;47.690;11.770;2023-05-29T03:50:13;93267.34;;;9.10;100.00
59367;BME280;45163;47.690;11.770;2023-05-29T03:52:41;93274.91;;;9.18;100.00
59367;BME280;45163;47.690;11.770;2023-05-29T03:55:11;93276.19;;;9.14;100.00
59367;BME280;45163;47.690;11.770;2023-05-29T03:57:41;93274.16;;;9.18;100.00
59367;BME280;45163;47.690;11.770;2023-05-29T04:00:11;93276.28;;;9.10;100.00
59367;BME280;45163;47.690;11.770;2023-05-29T04:02:38;93273.72;;;9.36;100.00
59367;BME280;45163;47.690;11.770;2023-05-29T04:05:05;93281.78;;;9.39;100.00
59367;BME280;45163;47.690;11.770;2023-05-29T04:07:41;93282.88;;;9.58;100.00
59367;BME280;45163;47.690;11.770;2023-05-29T04:10:07;93280.09;;;9.62;100.00
59367;BME280;45163;47.690;11.770;2023-05-29T04:12:34;93281.16;;;9.64;100.00
59367;BME280;45163;47.690;11.770;2023-05-29T04:15:00;93281.06;;;9.68;100.00
59367;BME280;45163;47.690;11.770;2023-05-29T04:17:26;93284.81;;;9.74;100.00
59367;BME280;45163;47.690;11.770;2023-05-29T04:19:52;93283.94;;;9.77;100.00
59367;BME280;45163;47.690;11.770;2023-05-29T04:22:18;93294.31;;;9.82;100.00
59367;BME280;45163;47.690;11.770;2023-05-29T04:24:45;93292.19;;;9.90;100.00
59367;BME280;45163;47.690;11.770;2023-05-29T04:27:11;93293.81;;;9.87;100.00
59367;BME280;45163;47.690;11.770;2023-05-29T04:29:42;93288.78;;;9.86;100.00
59367;BME280;45163;47.690;11.770;2023-05-29T04:32:08;93294.22;;;9.86;100.00
59367;BME280;45163;47.690;11.770;2023-05-29T04:34:37;93290.56;;;9.92;100.00
59367;BME280;45163;47.690;11.770;2023-05-29T04:37:05;93292.53;;;9.92;100.00
59367;BME280;45163;47.690;11.770;2023-05-29T04:39:32;93306.78;;;9.83;100.00
59367;BME280;45163;47.690;11.770;2023-05-29T04:41:58;93297.31;;;9.88;100.00
59367;BME280;45163;47.690;11.770;2023-05-29T04:44:27;93299.50;;;9.93;100.00
59367;BME280;45163;47.690;11.770;2023-05-29T04:46:55;93295.16;;;9.95;100.00
59367;BME280;45163;47.690;11.770;2023-05-29T04:49:22;93300.94;;;9.97;100.00
59367;BME280;45163;47.690;11.770;2023-05-29T04:51:48;93294.63;;;10.01;100.00
59367;BME280;45163;47.690;11.770;2023-05-29T04:54:18;93296.63;;;10.13;100.00
59367;BME280;45163;47.690;11.770;2023-05-29T04:56:46;93294.53;;;10.33;100.00
59367;BME280;45163;47.690;11.770;2023-05-29T04:59:12;93294.22;;;10.44;100.00
59367;BME280;45163;47.690;11.770;2023-05-29T05:01:38;93291.75;;;10.62;100.00
59367;BME280;45163;47.690;11.770;2023-05-29T05:04:04;93295.56;;;10.78;100.00
59367;BME280;45163;47.690;11.770;2023-05-29T05:06:30;93298.88;;;10.98;100.00
59367;BME280;45163;47.690;11.770;2023-05-29T05:08:56;93294.94;;;11.25;100.00
59367;BME280;45163;47.690;11.770;2023-05-29T05:11:25;93297.09;;;11.42;100.00
59367;BME280;45163;47.690;11.770;2023-05-29T05:13:51;93293.13;;;11.56;100.00
59367;BME280;45163;47.690;11.770;2023-05-29T05:16:17;93289.78;;;11.74;100.00
59367;BME280;45163;47.690;11.770;2023-05-29T05:18:44;93288.97;;;11.99;100.00
59367;BME280;45163;47.690;11.770;2023-05-29T05:21:10;93287.41;;;12.11;100.00
59367;BME280;45163;47.690;11.770;2023-05-29T05:23:36;93294.03;;;12.23;100.00
59367;BME280;45163;47.690;11.770;2023-05-29T05:26:02;93293.25;;;12.44;100.00
59367;BME280;45163;47.690;11.770;2023-05-29T05:28:28;93294.78;;;12.67;100.00
59367;BME280;45163;47.690;11.770;2023-05-29T05:30:54;93287.72;;;12.88;100.00
59367;BME280;45163;47.690;11.770;2023-05-29T05:33:21;93283.22;;;13.03;100.00
59367;BME280;45163;47.690;11.770;2023-05-29T05:35:46;93287.31;;;13.30;100.00
59367;BME280;45163;47.690;11.770;2023-05-29T05:38:12;93285.34;;;13.39;100.00
59367;BME280;45163;47.690;11.770;2023-05-29T05:40:38;93284.59;;;13.48;100.00
59367;BME280;45163;47.690;11.770;2023-05-29T05:43:05;93275.97;;;13.77;100.00
59367;BME280;45163;47.690;11.770;2023-05-29T05:45:31;93285.28;;;13.89;100.00
59367;BME280;45163;47.690;11.770;2023-05-29T05:47:57;93276.59;;;13.90;100.00
59367;BME280;45163;47.690;11.770;2023-05-29T05:50:23;93282.72;;;14.22;100.00
59367;BME280;45163;47.690;11.770;2023-05-29T05:52:50;93286.03;;;14.35;100.00
59367;BME280;45163;47.690;11.770;2023-05-29T05:55:16;93281.59;;;14.65;100.00
59367;BME280;45163;47.690;11.770;2023-05-29T05:57:43;93279.75;;;14.81;100.00
59367;BME280;45163;47.690;11.770;2023-05-29T06:00:09;93288.66;;;15.09;100.00
59367;BME280;45163;47.690;11.770;2023-05-29T06:02:38;93283.69;;;15.31;100.00
59367;BME280;45163;47.690;11.770;2023-05-29T06:05:08;93284.72;;;15.67;100.00
59367;BME280;45163;47.690;11.770;2023-05-29T06:07:35;93289.94;;;16.13;100.00
59367;BME280;45163;47.690;11.770;2023-05-29T06:10:02;93292.66;;;16.37;100.00
59367;BME280;45163;47.690;11.770;2023-05-29T06:12:29;93292.75;;;16.81;100.00
59367;BME280;45163;47.690;11.770;2023-05-29T06:14:55;93283.22;;;16.82;100.00
59367;BME280;45163;47.690;11.770;2023-05-29T06:17:22;93295.28;;;17.29;100.00
59367;BME280;45163;47.690;11.770;2023-05-29T06:19:49;93283.53;;;17.84;100.00
59367;BME280;45163;47.690;11.770;2023-05-29T06:22:15;93294.13;;;18.06;100.00
59367;BME280;45163;47.690;11.770;2023-05-29T06:24:41;93289.09;;;18.51;100.00
59367;BME280;45163;47.690;11.770;2023-05-29T06:27:07;93296.69;;;18.77;100.00
59367;BME280;45163;47.690;11.770;2023-05-29T06:29:33;93298.38;;;18.95;100.00
59367;BME280;45163;47.690;11.770;2023-05-29T06:31:59;93296.25;;;18.84;100.00
59367;BME280;45163;47.690;11.770;2023-05-29T06:34:26;93292.22;;;18.38;100.00
59367;BME280;45163;47.690;11.770;2023-05-29T06:36:52;93293.22;;;18.35;100.00
59367;BME280;45163;47.690;11.770;2023-05-29T06:39:18;93302.69;;;18.29;100.00
59367;BME280;45163;47.690;11.770;2023-05-29T06:41:46;93295.50;;;18.16;100.00
59367;BME280;45163;47.690;11.770;2023-05-29T06:44:12;93298.22;;;18.57;100.00
59367;BME280;45163;47.690;11.770;2023-05-29T06:46:38;93298.75;;;18.35;100.00
59367;BME280;45163;47.690;11.770;2023-05-29T06:49:04;93296.78;;;19.46;100.00
59367;BME280;45163;47.690;11.770;2023-05-29T06:51:30;93297.31;;;20.30;98.33
59367;BME280;45163;47.690;11.770;2023-05-29T06:53:58;93298.84;;;20.42;96.38
59367;BME280;45163;47.690;11.770;2023-05-29T06:56:23;93306.56;;;20.81;94.45
59367;BME280;45163;47.690;11.770;2023-05-29T06:58:49;93292.66;;;20.10;91.68
59367;BME280;45163;47.690;11.770;2023-05-29T07:01:15;93299.34;;;19.86;90.89
59367;BME280;45163;47.690;11.770;2023-05-29T07:03:42;93305.69;;;19.93;87.50
59367;BME280;45163;47.690;11.770;2023-05-29T07:06:09;93303.06;;;20.21;84.92
59367;BME280;45163;47.690;11.770;2023-05-29T07:08:35;93305.25;;;20.54;82.15
59367;BME280;45163;47.690;11.770;2023-05-29T07:11:02;93305.75;;;20.04;82.71
59367;BME280;45163;47.690;11.770;2023-05-29T07:13:28;93301.63;;;20.42;78.27
59367;BME280;45163;47.690;11.770;2023-05-29T07:15:54;93305.09;;;21.02;74.06
59367;BME280;45163;47.690;11.770;2023-05-29T07:18:20;93301.25;;;20.77;71.69
59367;BME280;45163;47.690;11.770;2023-05-29T07:20:45;93304.88;;;20.35;82.06
59367;BME280;45163;47.690;11.770;2023-05-29T07:23:12;93300.81;;;21.18;78.71
59367;BME280;45163;47.690;11.770;2023-05-29T07:25:37;93305.91;;;21.59;76.47
59367;BME280;45163;47.690;11.770;2023-05-29T07:28:03;93309.94;;;21.47;74.85
59367;BME280;45163;47.690;11.770;2023-05-29T07:30:29;93308.41;;;21.29;72.33
59367;BME280;45163;47.690;11.770;2023-05-29T07:32:55;93313.66;;;20.82;74.52
59367;BME280;45163;47.690;11.770;2023-05-29T07:35:21;93311.09;;;20.73;82.22
59367;BME280;45163;47.690;11.770;2023-05-29T07:37:48;93312.16;;;21.14;79.92
59367;BME280;45163;47.690;11.770;2023-05-29T07:40:15;93312.38;;;20.88;80.75
59367;BME280;45163;47.690;11.770;2023-05-29T07:42:41;93307.38;;;21.94;72.43
59367;BME280;45163;47.690;11.770;2023-05-29T07:45:07;93313.41;;;22.84;75.43
59367;BME280;45163;47.690;11.770;2023-05-29T07:47:33;93311.91;;;22.08;75.25
59367;BME280;45163;47.690;11.770;2023-05-29T07:49:59;93313.72;;;22.69;73.25
59367;BME280;45163;47.690;11.770;2023-05-29T07:52:25;93309.38;;;22.21;74.79
59367;BME280;45163;47.690;11.770;2023-05-29T07:54:52;93301.78;;;24.17;67.14
59367;BME280;45163;47.690;11.770;2023-05-29T07:57:18;93303.00;;;24.22;62.69
59367;BME280;45163;47.690;11.770;2023-05-29T07:59:44;93303.50;;;24.20;62.53
59367;BME280;45163;47.690;11.770;2023-05-29T08:02:10;93300.34;;;23.50;68.92
59367;BME280;45163;47.690;11.770;2023-05-29T08:04:37;93296.09;;;23.08;69.55
59367;BME280;45163;47.690;11.770;2023-05-29T08:07:03;93294.38;;;23.71;66.20
59367;BME280;45163;47.690;11.770;2023-05-29T08:09:29;93292.81;;;24.49;62.28
59367;BME280;45163;47.690;11.770;2023-05-29T08:11:55;93288.53;;;25.42;58.41
59367;BME280;45163;47.690;11.770;2023-05-29T08:14:21;93280.63;;;26.05;56.02
59367;BME280;45163;47.690;11.770;2023-05-29T08:16:47;93281.38;;;26.05;50.12
59367;BME280;45163;47.690;11.770;2023-05-29T08:19:13;93283.69;;;27.07;52.39
59367;BME280;45163;47.690;11.770;2023-05-29T08:21:39;93273.38;;;27.37;48.69
59367;BME280;45163;47.690;11.770;2023-05-29T08:24:06;93287.09;;;26.40;47.13
59367;BME280;45163;47.690;11.770;2023-05-29T08:26:32;93277.22;;;27.47;44.68
59367;BME280;45163;47.690;11.770;2023-05-29T08:28:58;93283.25;;;27.72;41.45
59367;BME280;45163;47.690;11.770;2023-05-29T08:31:24;93271.81;;;28.40;37.32
59367;BME280;45163;47.690;11.770;2023-05-29T08:33:51;93291.78;;;27.11;42.40
59367;BME280;45163;47.690;11.770;2023-05-29T08:36:17;93282.06;;;27.67;41.54
59367;BME280;45163;47.690;11.770;2023-05-29T08:38:49;93280.50;;;28.00;34.65
59367;BME280;45163;47.690;11.770;2023-05-29T08:41:26;93287.00;;;26.72;35.99
59367;BME280;45163;47.690;11.770;2023-05-29T08:43:53;93282.28;;;27.90;32.43
59367;BME280;45163;47.690;11.770;2023-05-29T08:46:19;93272.38;;;27.47;31.42
59367;BME280;45163;47.690;11.770;2023-05-29T08:48:49;93278.66;;;27.82;32.24
59367;BME280;45163;47.690;11.770;2023-05-29T08:51:20;93278.91;;;28.13;30.59
59367;BME280;45163;47.690;11.770;2023-05-29T08:53:47;93280.28;;;28.48;29.94
59367;BME280;45163;47.690;11.770;2023-05-29T08:56:14;93278.19;;;27.91;32.23
59367;BME280;45163;47.690;11.770;2023-05-29T08:58:40;93277.72;;;26.37;31.81
59367;BME280;45163;47.690;11.770;2023-05-29T09:01:06;93286.47;;;25.43;35.59
59367;BME280;45163;47.690;11.770;2023-05-29T09:03:34;93285.94;;;27.09;34.18
59367;BME280;45163;47.690;11.770;2023-05-29T09:06:00;93273.53;;;27.94;30.58
59367;BME280;45163;47.690;11.770;2023-05-29T09:08:29;93277.44;;;26.67;33.14
59367;BME280;45163;47.690;11.770;2023-05-29T09:10:56;93279.13;;;27.52;31.92
59367;BME280;45163;47.690;11.770;2023-05-29T09:13:22;93267.38;;;27.95;30.37
59367;BME280;45163;47.690;11.770;2023-05-29T09:15:49;93288.94;;;28.29;29.58
59367;BME280;45163;47.690;11.770;2023-05-29T09:18:16;93287.75;;;26.72;30.69
59367;BME280;45163;47.690;11.770;2023-05-29T09:20:43;93290.31;;;26.44;32.89
59367;BME280;45163;47.690;11.770;2023-05-29T09:23:09;93291.22;;;27.13;31.18
59367;BME280;45163;47.690;11.770;2023-05-29T09:25:40;93293.78;;;27.24;30.47
59367;BME280;45163;47.690;11.770;2023-05-29T09:28:08;93289.19;;;27.00;30.25
59367;BME280;45163;47.690;11.770;2023-05-29T09:30:43;93287.91;;;27.90;29.19
59367;BME280;45163;47.690;11.770;2023-05-29T09:33:11;93290.19;;;28.20;28.84
59367;BME280;45163;47.690;11.770;2023-05-29T09:35:38;93299.31;;;27.03;29.86
59367;BME280;45163;47.690;11.770;2023-05-29T09:38:06;93290.22;;;26.76;30.10
59367;BME280;45163;47.690;11.770;2023-05-29T09:40:36;93290.38;;;27.18;29.49
59367;BME280;45163;47.690;11.770;2023-05-29T09:45:40;93302.50;;;27.89;28.53
59367;BME280;45163;47.690;11.770;2023-05-29T09:48:26;93291.16;;;27.60;28.68
59367;BME280;45163;47.690;11.770;2023-05-29T09:50:52;93291.72;;;27.24;30.25
59367;BME280;45163;47.690;11.770;2023-05-29T09:53:21;93294.50;;;27.59;28.44
59367;BME280;45163;47.690;11.770;2023-05-29T09:55:51;93289.69;;;26.77;29.78
59367;BME280;45163;47.690;11.770;2023-05-29T09:58:21;93292.53;;;27.12;31.73
59367;BME280;45163;47.690;11.770;2023-05-29T10:00:48;93296.16;;;26.59;30.96
59367;BME280;45163;47.690;11.770;2023-05-29T10:03:15;93286.22;;;28.37;29.06
59367;BME280;45163;47.690;11.770;2023-05-29T10:05:43;93292.84;;;27.97;30.24
59367;BME280;45163;47.690;11.770;2023-05-29T10:08:13;93307.00;;;26.89;31.12
59367;BME280;45163;47.690;11.770;2023-05-29T10:10:44;93300.00;;;27.64;30.37
59367;BME280;45163;47.690;11.770;2023-05-29T10:13:14;93298.25;;;28.81;28.60
59367;BME280;45163;47.690;11.770;2023-05-29T10:15:45;93289.41;;;28.41;29.14
59367;BME280;45163;47.690;11.770;2023-05-29T10:18:21;93299.53;;;27.18;30.13
59367;BME280;45163;47.690;11.770;2023-05-29T10:20:50;93293.97;;;27.39;30.90
59367;BME280;45163;47.690;11.770;2023-05-29T10:23:25;93294.41;;;28.35;30.55
59367;BME280;45163;47.690;11.770;2023-05-29T10:25:52;93290.94;;;28.21;29.18
59367;BME280;45163;47.690;11.770;2023-05-29T10:28:22;93288.91;;;28.00;29.01
59367;BME280;45163;47.690;11.770;2023-05-29T10:30:55;93294.69;;;29.17;28.57
59367;BME280;45163;47.690;11.770;2023-05-29T10:36:19;93293.41;;;28.24;29.61
59367;BME280;45163;47.690;11.770;2023-05-29T10:38:50;93292.03;;;29.70;29.19
59367;BME280;45163;47.690;11.770;2023-05-29T10:43:56;93295.22;;;29.08;28.31
59367;BME280;45163;47.690;11.770;2023-05-29T10:49:18;93290.16;;;30.57;26.20
59367;BME280;45163;47.690;11.770;2023-05-29T10:51:44;93299.09;;;29.48;28.16
59367;BME280;45163;47.690;11.770;2023-05-29T10:54:10;93295.25;;;29.15;26.57
59367;BME280;45163;47.690;11.770;2023-05-29T10:56:37;93288.66;;;29.87;27.61
59367;BME280;45163;47.690;11.770;2023-05-29T10:59:03;93286.81;;;29.15;28.60
59367;BME280;45163;47.690;11.770;2023-05-29T11:01:30;93282.94;;;28.90;28.57
59367;BME280;45163;47.690;11.770;2023-05-29T11:06:44;93284.13;;;27.88;29.31
59367;BME280;45163;47.690;11.770;2023-05-29T11:09:30;93290.81;;;28.91;29.02
59367;BME280;45163;47.690;11.770;2023-05-29T11:15:10;93289.16;;;27.82;31.03
59367;BME280;45163;47.690;11.770;2023-05-29T11:20:08;93291.09;;;28.15;31.45
59367;BME280;45163;47.690;11.770;2023-05-29T11:25:20;93297.66;;;29.78;29.69
59367;BME280;45163;47.690;11.770;2023-05-29T11:27:46;93301.41;;;29.06;28.44
59367;BME280;45163;47.690;11.770;2023-05-29T11:30:13;93292.22;;;27.91;32.21
59367;BME280;45163;47.690;11.770;2023-05-29T11:32:40;93291.19;;;28.59;30.61
59367;BME280;45163;47.690;11.770;2023-05-29T11:35:09;93289.41;;;29.72;28.97
59367;BME280;45163;47.690;11.770;2023-05-29T11:37:35;93290.44;;;29.31;28.59
59367;BME280;45163;47.690;11.770;2023-05-29T11:40:06;93284.81;;;29.39;30.37
59367;BME280;45163;47.690;11.770;2023-05-29T11:42:33;93289.81;;;28.45;30.86
59367;BME280;45163;47.690;11.770;2023-05-29T11:45:15;93271.88;;;29.51;30.82
59367;BME280;45163;47.690;11.770;2023-05-29T11:47:57;93282.38;;;28.91;29.19
59367;BME280;45163;47.690;11.770;2023-05-29T11:50:32;93281.91;;;29.60;28.91
59367;BME280;45163;47.690;11.770;2023-05-29T11:52:59;93294.88;;;28.83;27.93
59367;BME280;45163;47.690;11.770;2023-05-29T11:55:27;93268.97;;;30.02;29.72
59367;BME280;45163;47.690;11.770;2023-05-29T11:57:58;93280.13;;;29.41;28.26
59367;BME280;45163;47.690;11.770;2023-05-29T12:00:25;93270.66;;;29.90;29.51
59367;BME280;45163;47.690;11.770;2023-05-29T12:02:52;93270.22;;;31.18;28.84
59367;BME280;45163;47.690;11.770;2023-05-29T12:05:18;93278.94;;;29.21;28.08
59367;BME280;45163;47.690;11.770;2023-05-29T12:07:54;93284.53;;;29.06;28.63
59367;BME280;45163;47.690;11.770;2023-05-29T12:10:23;93274.94;;;28.08;30.20
59367;BME280;45163;47.690;11.770;2023-05-29T12:12:54;93278.47;;;28.01;30.96
59367;BME280;45163;47.690;11.770;2023-05-29T12:15:21;93272.69;;;29.00;29.18
59367;BME280;45163;47.690;11.770;2023-05-29T12:17:49;93282.78;;;28.30;29.41
59367;BME280;45163;47.690;11.770;2023-05-29T12:20:16;93271.94;;;28.63;28.23
59367;BME280;45163;47.690;11.770;2023-05-29T12:22:44;93270.38;;;28.47;29.15
59367;BME280;45163;47.690;11.770;2023-05-29T12:25:11;93285.41;;;28.93;28.63
59367;BME280;45163;47.690;11.770;2023-05-29T12:27:43;93270.94;;;29.41;27.07
59367;BME280;45163;47.690;11.770;2023-05-29T12:30:10;93286.41;;;29.70;27.59
59367;BME280;45163;47.690;11.770;2023-05-29T12:32:41;93273.84;;;29.79;27.31
59367;BME280;45163;47.690;11.770;2023-05-29T12:35:18;93275.75;;;30.15;25.61
59367;BME280;45163;47.690;11.770;2023-05-29T12:37:46;93283.63;;;28.39;28.31
59367;BME280;45163;47.690;11.770;2023-05-29T12:40:17;93277.13;;;29.39;26.54
59367;BME280;45163;47.690;11.770;2023-05-29T12:42:44;93284.63;;;29.44;25.17
59367;BME280;45163;47.690;11.770;2023-05-29T12:45:11;93284.34;;;29.12;26.55
59367;BME280;45163;47.690;11.770;2023-05-29T12:47:37;93283.19;;;27.85;27.53
59367;BME280;45163;47.690;11.770;2023-05-29T12:50:23;93276.00;;;28.47;27.59
59367;BME280;45163;47.690;11.770;2023-05-29T12:55:25;93277.38;;;28.97;27.19
59367;BME280;45163;47.690;11.770;2023-05-29T12:57:51;93271.00;;;28.61;26.71
59367;BME280;45163;47.690;11.770;2023-05-29T13:00:19;93277.78;;;30.37;24.84
59367;BME280;45163;47.690;11.770;2023-05-29T13:02:49;93278.91;;;30.42;23.56
59367;BME280;45163;47.690;11.770;2023-05-29T13:05:15;93284.16;;;30.30;23.26
59367;BME280;45163;47.690;11.770;2023-05-29T13:07:47;93272.88;;;29.61;24.34
59367;BME280;45163;47.690;11.770;2023-05-29T13:10:14;93277.34;;;30.64;23.78
59367;BME280;45163;47.690;11.770;2023-05-29T13:12:41;93288.00;;;28.91;25.12
59367;BME280;45163;47.690;11.770;2023-05-29T13:15:09;93284.00;;;29.15;25.73
59367;BME280;45163;47.690;11.770;2023-05-29T13:17:35;93287.91;;;29.94;24.45
59367;BME280;45163;47.690;11.770;2023-05-29T13:20:01;93288.34;;;28.23;25.06
59367;BME280;45163;47.690;11.770;2023-05-29T13:22:27;93286.22;;;28.37;24.20
59367;BME280;45163;47.690;11.770;2023-05-29T13:24:59;93277.34;;;28.04;25.92
59367;BME280;45163;47.690;11.770;2023-05-29T13:27:26;93283.59;;;27.00;26.46
59367;BME280;45163;47.690;11.770;2023-05-29T13:29:53;93282.56;;;27.79;26.73